sensor_id;sensor_type;location;lat;lon;timestamp;P1;durP1;ratioP1;P2;durP2;ratioP2
29172;SDS011;16223;47.966;-1.616;2022-09-17T00:00:33;1.7249999999999999;;;1.3375;;
29172;SDS011;16223;47.966;-1.616;2022-09-17T00:01:33;6.725;;;1.5375;;
29172;SDS011;16223;47.966;-1.616;2022-09-17T00:02:33;2.4375;;;1.5375;;
29172;SDS011;16223;47.966;-1.616;2022-09-17T00:03:33;4.4;;;1.075;;
29172;SDS011;16223;47.966;-1.616;2022-09-17T00:04:33;5.0875;;;1.2625;;
29172;SDS011;16223;47.966;-1.616;2022-09-17T00:05:33;1.9500000000000002;;;1.1375;;
29172;SDS011;16223;47.966;-1.616;2022-09-17T00:06:34;5.3875;;;1.5125;;
29172;SDS011;16223;47.966;-1.616;2022-09-17T00:07:33;1.6625;;;1.2375;;
29172;SDS011;16223;47.966;-1.616;2022-09-17T00:08:34;3.0374999999999996;;;1.2125000000000001;;
29172;SDS011;16223;47.966;-1.616;2022-09-17T00:09:33;6.4;;;1.6375000000000002;;
29172;SDS011;16223;47.966;-1.616;2022-09-17T00:10:36;4.3;;;1.9874999999999998;;
29172;SDS011;16223;47.966;-1.616;2022-09-17T00:11:35;8.7625;;;1.5750000000000002;;
29172;SDS011;16223;47.966;-1.616;2022-09-17T00:12:33;1.975;;;1.1625;;
29172;SDS011;16223;47.966;-1.616;2022-09-17T00:13:33;2.8249999999999997;;;1.525;;
29172;SDS011;16223;47.966;-1.616;2022-09-17T00:14:33;2.5250000000000004;;;1.575;;
29172;SDS011;16223;47.966;-1.616;2022-09-17T00:15:38;6.8125;;;3.0625;;
29172;SDS011;16223;47.966;-1.616;2022-09-17T00:16:34;6.6625;;;2.9875;;
29172;SDS011;16223;47.966;-1.616;2022-09-17T00:17:33;1.775;;;1.5750000000000002;;
29172;SDS011;16223;47.966;-1.616;2022-09-17T00:18:33;1.5;;;1.3125;;
29172;SDS011;16223;47.966;-1.616;2022-09-17T00:19:33;3.025;;;1.3125;;
29172;SDS011;16223;47.966;-1.616;2022-09-17T00:20:37;10.9375;;;1.8499999999999999;;
29172;SDS011;16223;47.966;-1.616;2022-09-17T00:21:33;6.4625;;;1.7375;;
29172;SDS011;16223;47.966;-1.616;2022-09-17T00:22:33;4.9125;;;2.775;;
29172;SDS011;16223;47.966;-1.616;2022-09-17T00:23:33;7.95;;;1.9875;;
29172;SDS011;16223;47.966;-1.616;2022-09-17T00:24:33;2.3625;;;1.4625;;
29172;SDS011;16223;47.966;-1.616;2022-09-17T00:25:33;1.875;;;1.6375;;
29172;SDS011;16223;47.966;-1.616;2022-09-17T00:26:33;7.4125;;;1.925;;
29172;SDS011;16223;47.966;-1.616;2022-09-17T00:27:33;1.875;;;1.6375;;
29172;SDS011;16223;47.966;-1.616;2022-09-17T00:28:33;2.5374999999999996;;;1.7999999999999998;;
29172;SDS011;16223;47.966;-1.616;2022-09-17T00:29:33;3.275;;;1.7625;;
29172;SDS011;16223;47.966;-1.616;2022-09-17T00:30:33;5.6625;;;1.7;;
29172;SDS011;16223;47.966;-1.616;2022-09-17T00:31:33;9.1375;;;2.2625;;
29172;SDS011;16223;47.966;-1.616;2022-09-17T00:32:33;10.875;;;1.95;;
29172;SDS011;16223;47.966;-1.616;2022-09-17T00:33:33;3.575;;;2.0;;
29172;SDS011;16223;47.966;-1.616;2022-09-17T00:34:33;2.1375;;;1.3624999999999998;;
29172;SDS011;16223;47.966;-1.616;2022-09-17T00:35:33;2.175;;;1.35;;
29172;SDS011;16223;47.966;-1.616;2022-09-17T00:36:33;3.8874999999999997;;;1.6625;;
29172;SDS011;16223;47.966;-1.616;2022-09-17T00:37:33;6.5375;;;1.8625;;
29172;SDS011;16223;47.966;-1.616;2022-09-17T00:38:33;10.5875;;;2.0125;;
29172;SDS011;16223;47.966;-1.616;2022-09-17T00:39:33;6.95;;;2.175;;
29172;SDS011;16223;47.966;-1.616;2022-09-17T00:40:33;3.4625000000000004;;;1.9;;
29172;SDS011;16223;47.966;-1.616;2022-09-17T00:41:34;2.5;;;2.2375;;
29172;SDS011;16223;47.966;-1.616;2022-09-17T00:42:33;3.375;;;1.8625;;
29172;SDS011;16223;47.966;-1.616;2022-09-17T00:43:34;3.6;;;2.625;;
29172;SDS011;16223;47.966;-1.616;2022-09-17T00:44:50;2.6;;;1.6125;;
29172;SDS011;16223;47.966;-1.616;2022-09-17T00:45:33;2.7375;;;1.35;;
29172;SDS011;16223;47.966;-1.616;2022-09-17T00:46:33;1.7999999999999998;;;1.325;;
29172;SDS011;16223;47.966;-1.616;2022-09-17T00:47:34;2.5;;;2.1625;;
29172;SDS011;16223;47.966;-1.616;2022-09-17T00:48:33;4.225;;;2.4624999999999995;;
29172;SDS011;16223;47.966;-1.616;2022-09-17T00:49:33;13.8;;;1.425;;
29172;SDS011;16223;47.966;-1.616;2022-09-17T00:50:34;3.5500000000000003;;;1.9875;;
29172;SDS011;16223;47.966;-1.616;2022-09-17T00:51:35;3.15;;;2.35;;
29172;SDS011;16223;47.966;-1.616;2022-09-17T00:52:34;4.2;;;2.1;;
29172;SDS011;16223;47.966;-1.616;2022-09-17T00:53:33;3.825;;;2.0125;;
29172;SDS011;16223;47.966;-1.616;2022-09-17T00:54:33;3.0625;;;1.5375;;
29172;SDS011;16223;47.966;-1.616;2022-09-17T00:55:34;2.025;;;1.775;;
29172;SDS011;16223;47.966;-1.616;2022-09-17T00:56:34;2.4125;;;1.625;;
29172;SDS011;16223;47.966;-1.616;2022-09-17T00:57:33;3.7375;;;2.3125;;
29172;SDS011;16223;47.966;-1.616;2022-09-17T00:58:33;4.3125;;;2.175;;
29172;SDS011;16223;47.966;-1.616;2022-09-17T00:59:33;3.5875000000000004;;;1.3125;;
29172;SDS011;16223;47.966;-1.616;2022-09-17T01:00:33;3.1624999999999996;;;2.075;;
29172;SDS011;16223;47.966;-1.616;2022-09-17T01:01:33;4.2375;;;2.0875000000000004;;
29172;SDS011;16223;47.966;-1.616;2022-09-17T01:02:33;4.375;;;2.4625000000000004;;
29172;SDS011;16223;47.966;-1.616;2022-09-17T01:03:33;6.125;;;2.05;;
29172;SDS011;16223;47.966;-1.616;2022-09-17T01:04:33;5.225;;;2.2625;;
29172;SDS011;16223;47.966;-1.616;2022-09-17T01:05:35;4.1625;;;1.875;;
29172;SDS011;16223;47.966;-1.616;2022-09-17T01:06:34;2.875;;;1.7374999999999998;;
29172;SDS011;16223;47.966;-1.616;2022-09-17T01:07:38;4.125;;;1.925;;
29172;SDS011;16223;47.966;-1.616;2022-09-17T01:08:37;6.125;;;2.1125;;
29172;SDS011;16223;47.966;-1.616;2022-09-17T01:09:36;4.7875000000000005;;;2.0125;;
29172;SDS011;16223;47.966;-1.616;2022-09-17T01:10:53;10.4375;;;2.8375000000000004;;
29172;SDS011;16223;47.966;-1.616;2022-09-17T01:11:37;4.725;;;1.925;;
29172;SDS011;16223;47.966;-1.616;2022-09-17T01:12:37;2.9749999999999996;;;2.3125;;
29172;SDS011;16223;47.966;-1.616;2022-09-17T01:13:36;1.5750000000000002;;;1.4874999999999998;;
29172;SDS011;16223;47.966;-1.616;2022-09-17T01:14:37;1.9;;;1.6625;;
29172;SDS011;16223;47.966;-1.616;2022-09-17T01:15:34;2.6125;;;2.2125;;
29172;SDS011;16223;47.966;-1.616;2022-09-17T01:16:35;10.5875;;;2.1875;;
29172;SDS011;16223;47.966;-1.616;2022-09-17T01:17:34;9.6375;;;2.4125;;
29172;SDS011;16223;47.966;-1.616;2022-09-17T01:18:36;4.8;;;2.2375;;
29172;SDS011;16223;47.966;-1.616;2022-09-17T01:19:41;6.5375;;;1.85;;
29172;SDS011;16223;47.966;-1.616;2022-09-17T01:20:40;6.4;;;2.25;;
29172;SDS011;16223;47.966;-1.616;2022-09-17T01:21:37;2.825;;;2.0125;;
29172;SDS011;16223;47.966;-1.616;2022-09-17T01:22:35;7.9625;;;2.1125;;
29172;SDS011;16223;47.966;-1.616;2022-09-17T01:23:40;2.375;;;2.0125;;
29172;SDS011;16223;47.966;-1.616;2022-09-17T01:25:36;3.075;;;1.9000000000000001;;
29172;SDS011;16223;47.966;-1.616;2022-09-17T01:26:39;3.7125000000000004;;;2.25;;
29172;SDS011;16223;47.966;-1.616;2022-09-17T01:29:29;1.9374999999999998;;;1.6625;;
29172;SDS011;16223;47.966;-1.616;2022-09-17T01:30:27;1.8624999999999998;;;1.5999999999999999;;
29172;SDS011;16223;47.966;-1.616;2022-09-17T01:31:28;4.6;;;3.3375000000000004;;
29172;SDS011;16223;47.966;-1.616;2022-09-17T01:32:25;4.2375;;;2.525;;
29172;SDS011;16223;47.966;-1.616;2022-09-17T01:33:25;2.9875;;;2.1;;
29172;SDS011;16223;47.966;-1.616;2022-09-17T01:34:25;5.275;;;1.875;;
29172;SDS011;16223;47.966;-1.616;2022-09-17T01:35:27;3.025;;;1.725;;
29172;SDS011;16223;47.966;-1.616;2022-09-17T01:36:29;4.487500000000001;;;1.9375;;
29172;SDS011;16223;47.966;-1.616;2022-09-17T01:37:27;2.9499999999999997;;;1.6124999999999998;;
29172;SDS011;16223;47.966;-1.616;2022-09-17T01:38:25;10.375;;;3.1999999999999997;;
29172;SDS011;16223;47.966;-1.616;2022-09-17T01:39:27;6.050000000000001;;;3.0625;;
29172;SDS011;16223;47.966;-1.616;2022-09-17T01:40:25;5.725;;;2.7875;;
29172;SDS011;16223;47.966;-1.616;2022-09-17T01:41:27;5.487500000000001;;;2.2125;;
29172;SDS011;16223;47.966;-1.616;2022-09-17T01:42:24;3.3625;;;2.0375;;
29172;SDS011;16223;47.966;-1.616;2022-09-17T01:43:25;4.5875;;;1.8;;
29172;SDS011;16223;47.966;-1.616;2022-09-17T01:44:25;3.625;;;2.4625;;
29172;SDS011;16223;47.966;-1.616;2022-09-17T01:45:25;9.0125;;;3.4375;;
29172;SDS011;16223;47.966;-1.616;2022-09-17T01:46:26;2.65;;;1.7375;;
29172;SDS011;16223;47.966;-1.616;2022-09-17T01:47:25;9.675;;;2.45;;
29172;SDS011;16223;47.966;-1.616;2022-09-17T01:48:25;4.0125;;;2.5625;;
29172;SDS011;16223;47.966;-1.616;2022-09-17T01:49:25;2.275;;;1.875;;
29172;SDS011;16223;47.966;-1.616;2022-09-17T01:50:25;7.324999999999999;;;2.575;;
29172;SDS011;16223;47.966;-1.616;2022-09-17T01:51:25;4.3625;;;2.4625;;
29172;SDS011;16223;47.966;-1.616;2022-09-17T01:52:24;6.9750000000000005;;;2.1625;;
29172;SDS011;16223;47.966;-1.616;2022-09-17T01:53:25;3.15;;;2.4749999999999996;;
29172;SDS011;16223;47.966;-1.616;2022-09-17T01:54:25;4.9375;;;2.9625;;
29172;SDS011;16223;47.966;-1.616;2022-09-17T01:55:26;5.5874999999999995;;;2.675;;
29172;SDS011;16223;47.966;-1.616;2022-09-17T01:56:25;9.475;;;2.1;;
29172;SDS011;16223;47.966;-1.616;2022-09-17T01:57:25;12.4875;;;2.7249999999999996;;
29172;SDS011;16223;47.966;-1.616;2022-09-17T01:58:25;2.5375;;;1.8625;;
29172;SDS011;16223;47.966;-1.616;2022-09-17T01:59:26;4.4125;;;2.0374999999999996;;
29172;SDS011;16223;47.966;-1.616;2022-09-17T02:00:24;4.0875;;;2.9000000000000004;;
29172;SDS011;16223;47.966;-1.616;2022-09-17T02:01:24;2.4625;;;1.8;;
29172;SDS011;16223;47.966;-1.616;2022-09-17T02:02:25;3.1875;;;2.8375;;
29172;SDS011;16223;47.966;-1.616;2022-09-17T02:03:26;3.7;;;2.1;;
29172;SDS011;16223;47.966;-1.616;2022-09-17T02:04:25;4.0874999999999995;;;2.525;;
29172;SDS011;16223;47.966;-1.616;2022-09-17T02:05:26;4.3875;;;2.4375;;
29172;SDS011;16223;47.966;-1.616;2022-09-17T02:06:25;4.4750000000000005;;;2.2375;;
29172;SDS011;16223;47.966;-1.616;2022-09-17T02:07:24;13.875;;;3.1374999999999997;;
29172;SDS011;16223;47.966;-1.616;2022-09-17T02:08:25;6.0375;;;2.625;;
29172;SDS011;16223;47.966;-1.616;2022-09-17T02:09:26;4.9875;;;2.0375;;
29172;SDS011;16223;47.966;-1.616;2022-09-17T02:10:25;4.3375;;;2.4625;;
29172;SDS011;16223;47.966;-1.616;2022-09-17T02:11:24;5.1000000000000005;;;2.6624999999999996;;
29172;SDS011;16223;47.966;-1.616;2022-09-17T02:12:27;8.5625;;;2.7875;;
29172;SDS011;16223;47.966;-1.616;2022-09-17T02:13:25;2.4124999999999996;;;2.075;;
29172;SDS011;16223;47.966;-1.616;2022-09-17T02:14:26;3.0125;;;2.7125;;
29172;SDS011;16223;47.966;-1.616;2022-09-17T02:15:25;5.7125;;;2.1500000000000004;;
29172;SDS011;16223;47.966;-1.616;2022-09-17T02:16:25;6.2125;;;2.1875;;
29172;SDS011;16223;47.966;-1.616;2022-09-17T02:17:26;6.275;;;2.2875000000000005;;
29172;SDS011;16223;47.966;-1.616;2022-09-17T02:18:26;4.699999999999999;;;2.575;;
29172;SDS011;16223;47.966;-1.616;2022-09-17T02:19:25;5.0625;;;1.8125;;
29172;SDS011;16223;47.966;-1.616;2022-09-17T02:20:26;3.7249999999999996;;;2.0625;;
29172;SDS011;16223;47.966;-1.616;2022-09-17T02:21:27;4.5625;;;2.9875;;
29172;SDS011;16223;47.966;-1.616;2022-09-17T02:22:25;8.7;;;2.225;;
29172;SDS011;16223;47.966;-1.616;2022-09-17T02:23:25;3.2249999999999996;;;2.2625;;
29172;SDS011;16223;47.966;-1.616;2022-09-17T02:24:25;5.3875;;;2.7;;
29172;SDS011;16223;47.966;-1.616;2022-09-17T02:25:25;2.675;;;1.6;;
29172;SDS011;16223;47.966;-1.616;2022-09-17T02:26:24;9.2;;;2.3625;;
29172;SDS011;16223;47.966;-1.616;2022-09-17T02:27:27;3.2;;;2.6;;
29172;SDS011;16223;47.966;-1.616;2022-09-17T02:28:25;6.3374999999999995;;;3.0250000000000004;;
29172;SDS011;16223;47.966;-1.616;2022-09-17T02:29:25;15.149999999999999;;;2.9;;
29172;SDS011;16223;47.966;-1.616;2022-09-17T02:30:24;3.1750000000000003;;;2.0375;;
29172;SDS011;16223;47.966;-1.616;2022-09-17T02:31:24;2.9875;;;2.1875;;
29172;SDS011;16223;47.966;-1.616;2022-09-17T02:32:24;4.15;;;3.4;;
29172;SDS011;16223;47.966;-1.616;2022-09-17T02:33:24;5.375;;;1.95;;
29172;SDS011;16223;47.966;-1.616;2022-09-17T02:34:24;7.862500000000001;;;2.1875;;
29172;SDS011;16223;47.966;-1.616;2022-09-17T02:35:24;7.6625;;;2.9875;;
29172;SDS011;16223;47.966;-1.616;2022-09-17T02:36:25;2.7750000000000004;;;2.4;;
29172;SDS011;16223;47.966;-1.616;2022-09-17T02:37:25;3.8;;;2.8125;;
29172;SDS011;16223;47.966;-1.616;2022-09-17T02:38:25;4.725;;;2.525;;
29172;SDS011;16223;47.966;-1.616;2022-09-17T02:39:25;3.7249999999999996;;;2.4124999999999996;;
29172;SDS011;16223;47.966;-1.616;2022-09-17T02:40:24;11.7625;;;3.1125;;
29172;SDS011;16223;47.966;-1.616;2022-09-17T02:41:25;3.5;;;2.3625;;
29172;SDS011;16223;47.966;-1.616;2022-09-17T02:42:27;8.337499999999999;;;2.4125;;
29172;SDS011;16223;47.966;-1.616;2022-09-17T02:43:25;5.325;;;3.0625;;
29172;SDS011;16223;47.966;-1.616;2022-09-17T02:44:26;2.6625;;;1.975;;
29172;SDS011;16223;47.966;-1.616;2022-09-17T02:45:28;5.862499999999999;;;3.1375;;
29172;SDS011;16223;47.966;-1.616;2022-09-17T02:46:44;3.35;;;2.3125;;
29172;SDS011;16223;47.966;-1.616;2022-09-17T02:47:32;4.625;;;2.85;;
29172;SDS011;16223;47.966;-1.616;2022-09-17T02:48:33;7.6875;;;3.2125;;
29172;SDS011;16223;47.966;-1.616;2022-09-17T02:49:28;6.05;;;3.25;;
29172;SDS011;16223;47.966;-1.616;2022-09-17T02:50:29;7.275;;;3.05;;
29172;SDS011;16223;47.966;-1.616;2022-09-17T02:51:27;4.8125;;;3.9125000000000005;;
29172;SDS011;16223;47.966;-1.616;2022-09-17T02:52:28;12.9375;;;3.5;;
29172;SDS011;16223;47.966;-1.616;2022-09-17T02:53:30;5.4125;;;3.45;;
29172;SDS011;16223;47.966;-1.616;2022-09-17T02:54:25;2.4375;;;2.1625;;
29172;SDS011;16223;47.966;-1.616;2022-09-17T02:55:26;10.8;;;7.1875;;
29172;SDS011;16223;47.966;-1.616;2022-09-17T02:56:26;5.3375;;;3.2625;;
29172;SDS011;16223;47.966;-1.616;2022-09-17T02:57:26;5.3;;;3.1875;;
29172;SDS011;16223;47.966;-1.616;2022-09-17T02:58:25;4.55;;;3.2625;;
29172;SDS011;16223;47.966;-1.616;2022-09-17T02:59:25;14.2625;;;3.675;;
29172;SDS011;16223;47.966;-1.616;2022-09-17T03:00:24;10.4375;;;3.3499999999999996;;
29172;SDS011;16223;47.966;-1.616;2022-09-17T03:01:28;9.1;;;2.7625;;
29172;SDS011;16223;47.966;-1.616;2022-09-17T03:02:25;14.6125;;;5.275;;
29172;SDS011;16223;47.966;-1.616;2022-09-17T03:03:26;4.949999999999999;;;3.6875;;
29172;SDS011;16223;47.966;-1.616;2022-09-17T03:04:25;4.025;;;3.3375;;
29172;SDS011;16223;47.966;-1.616;2022-09-17T03:05:24;4.824999999999999;;;2.95;;
29172;SDS011;16223;47.966;-1.616;2022-09-17T03:06:24;3.325;;;2.275;;
29172;SDS011;16223;47.966;-1.616;2022-09-17T03:07:24;4.6625;;;2.8625;;
29172;SDS011;16223;47.966;-1.616;2022-09-17T03:08:26;4.55;;;2.8125;;
29172;SDS011;16223;47.966;-1.616;2022-09-17T03:09:25;6.4625;;;2.4375;;
29172;SDS011;16223;47.966;-1.616;2022-09-17T03:10:24;4.800000000000001;;;3.4875;;
29172;SDS011;16223;47.966;-1.616;2022-09-17T03:11:24;2.35;;;1.7874999999999999;;
29172;SDS011;16223;47.966;-1.616;2022-09-17T03:12:25;3.9375;;;2.65;;
29172;SDS011;16223;47.966;-1.616;2022-09-17T03:13:24;6.325;;;2.4875;;
29172;SDS011;16223;47.966;-1.616;2022-09-17T03:14:24;5.225;;;2.7375;;
29172;SDS011;16223;47.966;-1.616;2022-09-17T03:15:25;5.05;;;2.7375;;
29172;SDS011;16223;47.966;-1.616;2022-09-17T03:16:25;3.3125;;;2.9000000000000004;;
29172;SDS011;16223;47.966;-1.616;2022-09-17T03:17:24;4.975;;;2.7875;;
29172;SDS011;16223;47.966;-1.616;2022-09-17T03:18:24;3.1125;;;2.4;;
29172;SDS011;16223;47.966;-1.616;2022-09-17T03:19:25;3.5875;;;2.5625;;
29172;SDS011;16223;47.966;-1.616;2022-09-17T03:20:25;4.737500000000001;;;2.9125;;
29172;SDS011;16223;47.966;-1.616;2022-09-17T03:21:24;11.825;;;3.3375000000000004;;
29172;SDS011;16223;47.966;-1.616;2022-09-17T03:22:24;6.325;;;2.7375;;
29172;SDS011;16223;47.966;-1.616;2022-09-17T03:23:24;4.0875;;;2.3375000000000004;;
29172;SDS011;16223;47.966;-1.616;2022-09-17T03:24:24;4.1125;;;2.6125;;
29172;SDS011;16223;47.966;-1.616;2022-09-17T03:25:24;5.75;;;4.075;;
29172;SDS011;16223;47.966;-1.616;2022-09-17T03:26:24;5.3125;;;2.6125;;
29172;SDS011;16223;47.966;-1.616;2022-09-17T03:27:24;7.762499999999999;;;3.5875000000000004;;
29172;SDS011;16223;47.966;-1.616;2022-09-17T03:28:24;5.5;;;2.95;;
29172;SDS011;16223;47.966;-1.616;2022-09-17T03:29:24;2.7;;;2.4375;;
29172;SDS011;16223;47.966;-1.616;2022-09-17T03:30:24;5.575;;;3.6125;;
29172;SDS011;16223;47.966;-1.616;2022-09-17T03:31:24;4.9375;;;2.9;;
29172;SDS011;16223;47.966;-1.616;2022-09-17T03:32:24;7.9125;;;3.3;;
29172;SDS011;16223;47.966;-1.616;2022-09-17T03:33:24;3.025;;;2.7249999999999996;;
29172;SDS011;16223;47.966;-1.616;2022-09-17T03:34:34;3.2625;;;2.3625;;
29172;SDS011;16223;47.966;-1.616;2022-09-17T03:35:24;5.725;;;3.3;;
29172;SDS011;16223;47.966;-1.616;2022-09-17T03:36:24;5.737500000000001;;;3.0125;;
29172;SDS011;16223;47.966;-1.616;2022-09-17T03:37:24;5.35;;;3.375;;
29172;SDS011;16223;47.966;-1.616;2022-09-17T03:38:24;5.1875;;;2.7874999999999996;;
29172;SDS011;16223;47.966;-1.616;2022-09-17T03:39:24;8.225;;;3.8;;
29172;SDS011;16223;47.966;-1.616;2022-09-17T03:40:24;6.6625000000000005;;;2.4625;;
29172;SDS011;16223;47.966;-1.616;2022-09-17T03:41:24;3.1125000000000003;;;2.5;;
29172;SDS011;16223;47.966;-1.616;2022-09-17T03:42:24;7.2125;;;3.0;;
29172;SDS011;16223;47.966;-1.616;2022-09-17T03:43:24;7.6875;;;3.4749999999999996;;
29172;SDS011;16223;47.966;-1.616;2022-09-17T03:44:24;11.2;;;4.2875;;
29172;SDS011;16223;47.966;-1.616;2022-09-17T03:45:24;7.275;;;3.85;;
29172;SDS011;16223;47.966;-1.616;2022-09-17T03:46:24;11.712499999999999;;;2.525;;
29172;SDS011;16223;47.966;-1.616;2022-09-17T03:47:24;4.0249999999999995;;;3.0375;;
29172;SDS011;16223;47.966;-1.616;2022-09-17T03:48:25;9.75;;;3.4625;;
29172;SDS011;16223;47.966;-1.616;2022-09-17T03:49:24;7.6125;;;3.6374999999999997;;
29172;SDS011;16223;47.966;-1.616;2022-09-17T03:50:24;11.3375;;;2.875;;
29172;SDS011;16223;47.966;-1.616;2022-09-17T03:51:24;8.825;;;3.4749999999999996;;
29172;SDS011;16223;47.966;-1.616;2022-09-17T03:52:24;8.0375;;;3.5625;;
29172;SDS011;16223;47.966;-1.616;2022-09-17T03:53:24;10.0125;;;2.925;;
29172;SDS011;16223;47.966;-1.616;2022-09-17T03:54:24;2.9125;;;2.2375;;
29172;SDS011;16223;47.966;-1.616;2022-09-17T03:55:24;8.55;;;3.5625;;
29172;SDS011;16223;47.966;-1.616;2022-09-17T03:56:24;6.1;;;3.8;;
29172;SDS011;16223;47.966;-1.616;2022-09-17T03:57:24;3.375;;;2.675;;
29172;SDS011;16223;47.966;-1.616;2022-09-17T03:58:24;3.1500000000000004;;;2.65;;
29172;SDS011;16223;47.966;-1.616;2022-09-17T03:59:24;4.325;;;3.525;;
29172;SDS011;16223;47.966;-1.616;2022-09-17T04:00:25;3.6499999999999995;;;2.7125;;
29172;SDS011;16223;47.966;-1.616;2022-09-17T04:01:24;10.049999999999999;;;3.3499999999999996;;
29172;SDS011;16223;47.966;-1.616;2022-09-17T04:02:24;6.3625;;;3.4375;;
29172;SDS011;16223;47.966;-1.616;2022-09-17T04:03:25;12.425;;;4.5625;;
29172;SDS011;16223;47.966;-1.616;2022-09-17T04:04:24;7.0875;;;3.175;;
29172;SDS011;16223;47.966;-1.616;2022-09-17T04:05:24;6.074999999999999;;;3.6375;;
29172;SDS011;16223;47.966;-1.616;2022-09-17T04:06:25;7.575;;;3.1125;;
29172;SDS011;16223;47.966;-1.616;2022-09-17T04:07:24;4.7125;;;3.3625;;
29172;SDS011;16223;47.966;-1.616;2022-09-17T04:08:24;3.6624999999999996;;;2.8375;;
29172;SDS011;16223;47.966;-1.616;2022-09-17T04:09:24;7.062499999999999;;;2.8875;;
29172;SDS011;16223;47.966;-1.616;2022-09-17T04:10:24;5.6375;;;2.8625000000000003;;
29172;SDS011;16223;47.966;-1.616;2022-09-17T04:11:24;10.7125;;;4.0125;;
29172;SDS011;16223;47.966;-1.616;2022-09-17T04:12:24;6.137499999999999;;;3.575;;
29172;SDS011;16223;47.966;-1.616;2022-09-17T04:13:24;11.687500000000002;;;3.5999999999999996;;
29172;SDS011;16223;47.966;-1.616;2022-09-17T04:14:24;7.5625;;;3.875;;
29172;SDS011;16223;47.966;-1.616;2022-09-17T04:15:25;3.625;;;3.1125;;
29172;SDS011;16223;47.966;-1.616;2022-09-17T04:16:24;11.45;;;3.5875;;
29172;SDS011;16223;47.966;-1.616;2022-09-17T04:17:24;5.1375;;;3.1125;;
29172;SDS011;16223;47.966;-1.616;2022-09-17T04:18:24;6.425;;;3.225;;
29172;SDS011;16223;47.966;-1.616;2022-09-17T04:19:24;7.325000000000001;;;4.5125;;
29172;SDS011;16223;47.966;-1.616;2022-09-17T04:20:24;6.1875;;;3.5875;;
29172;SDS011;16223;47.966;-1.616;2022-09-17T04:21:24;4.6875;;;3.6624999999999996;;
29172;SDS011;16223;47.966;-1.616;2022-09-17T04:22:25;5.699999999999999;;;3.1;;
29172;SDS011;16223;47.966;-1.616;2022-09-17T04:23:24;7.3999999999999995;;;2.975;;
29172;SDS011;16223;47.966;-1.616;2022-09-17T04:24:24;4.7875;;;3.0625;;
29172;SDS011;16223;47.966;-1.616;2022-09-17T04:25:24;9.4125;;;2.9625;;
29172;SDS011;16223;47.966;-1.616;2022-09-17T04:26:24;5.075;;;3.0625;;
29172;SDS011;16223;47.966;-1.616;2022-09-17T04:27:24;6.5125;;;3.0125;;
29172;SDS011;16223;47.966;-1.616;2022-09-17T04:28:24;5.8125;;;3.475;;
29172;SDS011;16223;47.966;-1.616;2022-09-17T04:29:24;3.3875;;;2.7;;
29172;SDS011;16223;47.966;-1.616;2022-09-17T04:30:24;3.75;;;3.0375;;
29172;SDS011;16223;47.966;-1.616;2022-09-17T04:31:24;6.737500000000001;;;4.4875;;
29172;SDS011;16223;47.966;-1.616;2022-09-17T04:32:24;4.3375;;;3.1125;;
29172;SDS011;16223;47.966;-1.616;2022-09-17T04:33:24;3.3;;;2.4875000000000003;;
29172;SDS011;16223;47.966;-1.616;2022-09-17T04:34:24;4.137499999999999;;;3.325;;
29172;SDS011;16223;47.966;-1.616;2022-09-17T04:35:24;4.85;;;3.1375;;
29172;SDS011;16223;47.966;-1.616;2022-09-17T04:36:24;7.7125;;;3.9;;
29172;SDS011;16223;47.966;-1.616;2022-09-17T04:37:25;6.975;;;3.0875;;
29172;SDS011;16223;47.966;-1.616;2022-09-17T04:38:25;4.55;;;3.425;;
29172;SDS011;16223;47.966;-1.616;2022-09-17T04:39:24;6.3375;;;3.0125;;
29172;SDS011;16223;47.966;-1.616;2022-09-17T04:40:25;9.4125;;;3.3375;;
29172;SDS011;16223;47.966;-1.616;2022-09-17T04:41:24;7.875;;;4.35;;
29172;SDS011;16223;47.966;-1.616;2022-09-17T04:42:24;11.825000000000001;;;7.2124999999999995;;
29172;SDS011;16223;47.966;-1.616;2022-09-17T04:43:24;6.9;;;3.8625;;
29172;SDS011;16223;47.966;-1.616;2022-09-17T04:44:24;5.887499999999999;;;4.275;;
29172;SDS011;16223;47.966;-1.616;2022-09-17T04:45:24;6.0;;;5.2125;;
29172;SDS011;16223;47.966;-1.616;2022-09-17T04:46:24;4.3;;;3.6000000000000005;;
29172;SDS011;16223;47.966;-1.616;2022-09-17T04:47:24;5.9625;;;3.925;;
29172;SDS011;16223;47.966;-1.616;2022-09-17T04:48:24;5.675;;;3.3;;
29172;SDS011;16223;47.966;-1.616;2022-09-17T04:49:24;5.725;;;3.3124999999999996;;
29172;SDS011;16223;47.966;-1.616;2022-09-17T04:50:24;4.325;;;3.3;;
29172;SDS011;16223;47.966;-1.616;2022-09-17T04:51:24;5.3125;;;4.324999999999999;;
29172;SDS011;16223;47.966;-1.616;2022-09-17T04:52:24;7.675000000000001;;;3.4875;;
29172;SDS011;16223;47.966;-1.616;2022-09-17T04:53:24;7.0625;;;3.3;;
29172;SDS011;16223;47.966;-1.616;2022-09-17T04:54:24;6.9125000000000005;;;3.2;;
29172;SDS011;16223;47.966;-1.616;2022-09-17T04:55:24;6.362500000000001;;;5.0249999999999995;;
29172;SDS011;16223;47.966;-1.616;2022-09-17T04:56:24;7.050000000000001;;;3.7874999999999996;;
29172;SDS011;16223;47.966;-1.616;2022-09-17T04:57:25;4.9125000000000005;;;3.425;;
29172;SDS011;16223;47.966;-1.616;2022-09-17T04:58:24;5.75;;;3.2625;;
29172;SDS011;16223;47.966;-1.616;2022-09-17T04:59:25;7.112500000000001;;;3.8999999999999995;;
29172;SDS011;16223;47.966;-1.616;2022-09-17T05:00:24;6.35;;;3.7875;;
29172;SDS011;16223;47.966;-1.616;2022-09-17T05:01:24;6.275;;;3.25;;
29172;SDS011;16223;47.966;-1.616;2022-09-17T05:02:24;5.449999999999999;;;2.9000000000000004;;
29172;SDS011;16223;47.966;-1.616;2022-09-17T05:03:24;5.375;;;3.7125000000000004;;
29172;SDS011;16223;47.966;-1.616;2022-09-17T05:04:24;6.074999999999999;;;4.7;;
29172;SDS011;16223;47.966;-1.616;2022-09-17T05:05:24;6.4625;;;3.6000000000000005;;
29172;SDS011;16223;47.966;-1.616;2022-09-17T05:06:24;13.0;;;4.225;;
29172;SDS011;16223;47.966;-1.616;2022-09-17T05:07:24;9.925;;;3.775;;
29172;SDS011;16223;47.966;-1.616;2022-09-17T05:08:24;4.925000000000001;;;3.7375;;
29172;SDS011;16223;47.966;-1.616;2022-09-17T05:09:25;6.525;;;3.5249999999999995;;
29172;SDS011;16223;47.966;-1.616;2022-09-17T05:10:24;13.137500000000001;;;4.7125;;
29172;SDS011;16223;47.966;-1.616;2022-09-17T05:11:24;11.1625;;;4.65;;
29172;SDS011;16223;47.966;-1.616;2022-09-17T05:12:24;8.4875;;;4.1875;;
29172;SDS011;16223;47.966;-1.616;2022-09-17T05:13:24;6.05;;;3.5875;;
29172;SDS011;16223;47.966;-1.616;2022-09-17T05:14:24;5.050000000000001;;;3.6;;
29172;SDS011;16223;47.966;-1.616;2022-09-17T05:15:25;8.425;;;3.3874999999999997;;
29172;SDS011;16223;47.966;-1.616;2022-09-17T05:16:24;6.3875;;;3.9625000000000004;;
29172;SDS011;16223;47.966;-1.616;2022-09-17T05:17:24;6.6375;;;3.8375000000000004;;
29172;SDS011;16223;47.966;-1.616;2022-09-17T05:18:25;5.4624999999999995;;;3.175;;
29172;SDS011;16223;47.966;-1.616;2022-09-17T05:19:24;8.7;;;4.2124999999999995;;
29172;SDS011;16223;47.966;-1.616;2022-09-17T05:20:24;4.175;;;3.2625;;
29172;SDS011;16223;47.966;-1.616;2022-09-17T05:21:24;6.1125;;;4.137499999999999;;